createdAt,value
2022-12-24T00:01:21.958Z,-6.70
2022-12-24T00:03:50.411Z,-6.70
2022-12-24T00:06:20.347Z,-6.70
2022-12-24T00:08:48.889Z,-6.70
2022-12-24T00:11:18.770Z,-6.60
2022-12-24T00:13:47.000Z,-6.60
2022-12-24T00:16:15.288Z,-6.70
2022-12-24T00:18:46.509Z,-6.60
2022-12-24T00:21:15.541Z,-6.70
2022-12-24T00:23:43.834Z,-6.60
2022-12-24T00:26:12.364Z,-6.60
2022-12-24T00:28:42.286Z,-6.60
2022-12-24T00:31:11.888Z,-6.70
2022-12-24T00:33:43.346Z,-6.50
2022-12-24T00:36:11.507Z,-6.70
2022-12-24T00:38:39.992Z,-6.70
2022-12-24T00:41:26.910Z,-6.80
2022-12-24T00:43:57.161Z,-6.80
2022-12-24T00:46:26.121Z,-6.80
2022-12-24T00:48:54.378Z,-6.80
2022-12-24T00:51:23.246Z,-6.80
2022-12-24T00:53:52.987Z,-6.80
2022-12-24T00:56:21.410Z,-6.80
2022-12-24T00:58:49.884Z,-6.70
2022-12-24T01:01:19.870Z,-6.80
2022-12-24T01:03:48.617Z,-6.70
2022-12-24T01:06:17.845Z,-6.70
2022-12-24T01:08:46.123Z,-6.80
2022-12-24T01:11:14.780Z,-6.70
2022-12-24T01:13:43.035Z,-6.70
2022-12-24T01:16:20.718Z,-6.70
2022-12-24T01:18:50.395Z,-6.70
2022-12-24T01:21:18.620Z,-6.70
2022-12-24T01:23:46.856Z,-6.70
2022-12-24T01:26:15.060Z,-6.60
2022-12-24T01:28:43.500Z,-6.60
2022-12-24T01:31:12.307Z,-6.60
2022-12-24T01:33:40.702Z,-6.70
2022-12-24T01:36:10.824Z,-6.70
2022-12-24T01:38:39.107Z,-6.70
2022-12-24T01:41:24.806Z,-6.70
2022-12-24T01:43:53.025Z,-6.70
2022-12-24T01:46:22.052Z,-6.70
2022-12-24T01:48:51.324Z,-6.70
2022-12-24T01:51:25.704Z,-6.80
2022-12-24T01:53:57.901Z,-6.70
2022-12-24T01:56:26.762Z,-6.80
2022-12-24T01:58:58.339Z,-6.90
2022-12-24T02:01:26.568Z,-6.80
2022-12-24T02:03:54.921Z,-6.90
2022-12-24T02:06:25.127Z,-6.80
2022-12-24T02:08:53.516Z,-6.90
2022-12-24T02:11:22.355Z,-6.90
2022-12-24T02:13:51.718Z,-6.90
2022-12-24T02:16:26.951Z,-7.00
2022-12-24T02:19:00.571Z,-7.00
2022-12-24T02:21:44.113Z,-6.90
2022-12-24T02:24:34.693Z,-6.90
2022-12-24T02:27:10.224Z,-6.90
2022-12-24T02:30:02.389Z,-6.90
2022-12-24T02:32:35.227Z,-7.00
2022-12-24T02:35:05.835Z,-7.10
2022-12-24T02:37:36.260Z,-7.30
2022-12-24T02:40:13.828Z,-7.10
2022-12-24T02:42:45.825Z,-7.00
2022-12-24T02:45:16.096Z,-6.90
2022-12-24T02:47:46.957Z,-7.00
2022-12-24T02:50:16.308Z,-7.00
2022-12-24T02:52:45.696Z,-7.20
2022-12-24T02:55:15.591Z,-7.20
2022-12-24T02:58:03.821Z,-7.10
2022-12-24T03:00:35.317Z,-7.10
2022-12-24T03:03:12.010Z,-7.20
2022-12-24T03:05:44.034Z,-7.30
2022-12-24T03:08:15.606Z,-7.20
2022-12-24T03:10:45.520Z,-7.10
2022-12-24T03:13:15.405Z,-7.00
2022-12-24T03:15:44.285Z,-7.00
2022-12-24T03:18:15.313Z,-7.10
2022-12-24T03:20:45.311Z,-7.10
2022-12-24T03:23:14.273Z,-7.10
2022-12-24T03:25:43.689Z,-7.10
2022-12-24T03:28:13.364Z,-7.00
2022-12-24T03:30:43.862Z,-7.10
2022-12-24T03:33:14.174Z,-7.00
2022-12-24T03:35:42.521Z,-7.10
2022-12-24T03:38:10.670Z,-7.10
2022-12-24T03:40:38.830Z,-7.10
2022-12-24T03:43:07.159Z,-7.10
2022-12-24T03:45:35.355Z,-7.00
2022-12-24T03:48:03.599Z,-7.00
2022-12-24T03:50:33.340Z,-7.00
2022-12-24T03:53:01.611Z,-7.00
2022-12-24T03:55:32.587Z,-7.00
2022-12-24T03:58:00.709Z,-6.90
2022-12-24T04:00:29.886Z,-6.90
2022-12-24T04:02:58.052Z,-6.90
2022-12-24T04:05:26.546Z,-6.90
2022-12-24T04:07:56.338Z,-6.90
2022-12-24T04:10:24.442Z,-6.90
2022-12-24T04:12:52.580Z,-6.90
2022-12-24T04:15:21.008Z,-6.90
2022-12-24T04:17:49.143Z,-7.00
2022-12-24T04:20:17.448Z,-7.10
2022-12-24T04:22:45.708Z,-7.10
2022-12-24T04:25:15.627Z,-7.00
2022-12-24T04:27:43.786Z,-6.90
2022-12-24T04:30:12.246Z,-6.80
2022-12-24T04:32:43.036Z,-7.00
2022-12-24T04:35:11.296Z,-7.00
2022-12-24T04:37:39.439Z,-7.20
2022-12-24T04:40:08.237Z,-7.10
2022-12-24T04:42:41.269Z,-7.10
2022-12-24T04:45:10.187Z,-7.00
2022-12-24T04:47:38.513Z,-7.10
2022-12-24T04:50:07.208Z,-7.10
2022-12-24T04:52:35.414Z,-7.00
2022-12-24T04:55:03.923Z,-6.90
2022-12-24T04:57:32.731Z,-6.70
2022-12-24T05:00:02.304Z,-6.70
2022-12-24T05:02:30.854Z,-6.60
2022-12-24T05:04:59.326Z,-6.70
2022-12-24T05:07:29.190Z,-6.70
2022-12-24T05:09:57.360Z,-6.70
2022-12-24T05:12:25.463Z,-6.90
2022-12-24T05:14:55.445Z,-6.80
2022-12-24T05:17:25.187Z,-6.90
2022-12-24T05:19:53.560Z,-6.90
2022-12-24T05:22:39.196Z,-6.90
2022-12-24T05:25:24.819Z,-6.80
2022-12-24T05:27:54.806Z,-6.80
2022-12-24T05:30:23.182Z,-6.90
2022-12-24T05:32:53.027Z,-6.90
2022-12-24T05:35:21.293Z,-6.90
2022-12-24T05:37:49.465Z,-6.90
2022-12-24T05:40:17.881Z,-7.00
2022-12-24T05:42:46.007Z,-7.00
2022-12-24T05:45:14.126Z,-7.10
2022-12-24T05:47:43.698Z,-7.10
2022-12-24T05:50:13.929Z,-7.10
2022-12-24T05:52:42.262Z,-7.10
2022-12-24T05:55:11.077Z,-7.10
2022-12-24T05:57:40.817Z,-7.10
2022-12-24T06:00:14.510Z,-7.10
2022-12-24T06:02:42.878Z,-7.20
2022-12-24T06:05:11.425Z,-7.20
2022-12-24T06:07:40.990Z,-7.10
2022-12-24T06:10:10.165Z,-7.10
2022-12-24T06:12:38.298Z,-7.10
2022-12-24T06:15:07.200Z,-7.10
2022-12-24T06:17:35.419Z,-7.10
2022-12-24T06:20:03.780Z,-7.00
2022-12-24T06:22:31.887Z,-7.00
2022-12-24T06:25:01.399Z,-7.00
2022-12-24T06:27:29.736Z,-7.00
2022-12-24T06:29:58.024Z,-6.90
2022-12-24T06:32:26.223Z,-7.00
2022-12-24T06:34:54.431Z,-7.00
2022-12-24T06:37:24.236Z,-6.90
2022-12-24T06:39:52.537Z,-6.90
2022-12-24T06:42:22.079Z,-7.00
2022-12-24T06:44:50.242Z,-7.10
2022-12-24T06:47:18.544Z,-7.00
2022-12-24T06:49:47.686Z,-7.00
2022-12-24T06:52:15.899Z,-7.00
2022-12-24T06:54:44.124Z,-7.00
2022-12-24T06:57:12.261Z,-7.10
2022-12-24T06:59:41.956Z,-7.10
2022-12-24T07:02:10.742Z,-7.10
2022-12-24T07:04:39.147Z,-7.10
2022-12-24T07:07:07.261Z,-7.20
2022-12-24T07:09:35.376Z,-7.20
2022-12-24T07:12:03.730Z,-7.20
2022-12-24T07:14:34.697Z,-7.20
2022-12-24T07:17:04.360Z,-7.30
2022-12-24T07:19:32.570Z,-7.30
2022-12-24T07:22:00.886Z,-7.30
2022-12-24T07:24:29.054Z,-7.40
2022-12-24T07:26:57.275Z,-7.40
2022-12-24T07:29:25.579Z,-7.30
2022-12-24T07:31:53.798Z,-7.40
2022-12-24T07:34:23.440Z,-7.30
2022-12-24T07:36:51.765Z,-7.40
2022-12-24T07:39:20.106Z,-7.40
2022-12-24T07:41:48.774Z,-7.50
2022-12-24T07:44:19.856Z,-7.50
2022-12-24T07:46:49.987Z,-7.50
2022-12-24T07:49:18.381Z,-7.50
2022-12-24T07:51:48.076Z,-7.60
2022-12-24T07:54:16.172Z,-7.60
2022-12-24T07:56:44.485Z,-7.60
2022-12-24T07:59:15.758Z,-7.60
2022-12-24T08:01:44.372Z,-7.50
2022-12-24T08:04:14.545Z,-7.60
2022-12-24T08:06:42.843Z,-7.60
2022-12-24T08:09:14.416Z,-7.50
2022-12-24T08:11:49.684Z,-7.50
2022-12-24T08:14:19.986Z,-7.50
2022-12-24T08:16:48.197Z,-7.40
2022-12-24T08:19:16.600Z,-7.40
2022-12-24T08:21:44.744Z,-7.40
2022-12-24T08:24:14.270Z,-7.40
2022-12-24T08:26:42.598Z,-7.40
2022-12-24T08:29:12.693Z,-7.40
2022-12-24T08:31:40.997Z,-7.30
2022-12-24T08:34:09.733Z,-7.30
2022-12-24T08:36:37.864Z,-7.30
2022-12-24T08:39:06.018Z,-7.30
2022-12-24T08:41:35.727Z,-7.30
2022-12-24T08:44:03.886Z,-7.30
2022-12-24T08:46:32.098Z,-7.20
2022-12-24T08:49:00.281Z,-7.30
2022-12-24T08:51:28.657Z,-7.20
2022-12-24T08:53:56.883Z,-7.30
2022-12-24T08:56:25.203Z,-7.20
2022-12-24T08:58:55.303Z,-7.20
2022-12-24T09:01:23.564Z,-7.10
2022-12-24T09:03:52.149Z,-7.10
2022-12-24T09:06:23.564Z,-7.10
2022-12-24T09:08:51.785Z,-7.10
2022-12-24T09:11:20.591Z,-7.00
2022-12-24T09:13:48.908Z,-7.00
2022-12-24T09:16:18.510Z,-7.00
2022-12-24T09:18:46.955Z,-7.00
2022-12-24T09:21:15.929Z,-7.00
2022-12-24T09:23:44.936Z,-7.00
2022-12-24T09:26:15.736Z,-7.00
2022-12-24T09:28:43.945Z,-6.90
2022-12-24T09:31:12.796Z,-7.00
2022-12-24T09:33:46.080Z,-6.90
2022-12-24T09:36:14.461Z,-6.90
2022-12-24T09:38:42.773Z,-6.90
2022-12-24T09:41:15.076Z,-6.90
2022-12-24T09:43:46.528Z,-6.90
2022-12-24T09:46:18.489Z,-6.90
2022-12-24T09:48:49.472Z,-6.90
2022-12-24T09:51:20.535Z,-6.90
2022-12-24T09:53:52.799Z,-6.80
2022-12-24T09:56:24.111Z,-6.80
2022-12-24T09:58:56.194Z,-6.80
2022-12-24T10:01:24.402Z,-6.80
2022-12-24T10:03:54.089Z,-6.70
2022-12-24T10:06:28.925Z,-6.70
2022-12-24T10:09:04.275Z,-6.70
2022-12-24T10:11:37.677Z,-6.70
2022-12-24T10:14:13.539Z,-6.60
2022-12-24T10:16:44.787Z,-6.60
2022-12-24T10:19:17.463Z,-6.50
2022-12-24T10:21:50.602Z,-6.40
2022-12-24T10:24:22.679Z,-6.40
2022-12-24T10:26:54.219Z,-6.40
2022-12-24T10:29:24.812Z,-6.40
2022-12-24T10:31:59.786Z,-6.40
2022-12-24T10:34:32.081Z,-6.30
2022-12-24T10:37:03.139Z,-6.30
2022-12-24T10:39:31.611Z,-6.30
2022-12-24T10:42:03.942Z,-6.30
2022-12-24T10:44:33.401Z,-6.30
2022-12-24T10:47:01.537Z,-6.20
2022-12-24T10:49:33.699Z,-6.20
2022-12-24T10:52:05.934Z,-6.20
2022-12-24T10:54:40.076Z,-6.20
2022-12-24T10:57:24.164Z,-6.10
2022-12-24T10:59:53.820Z,-6.10
2022-12-24T11:02:29.884Z,-6.00
2022-12-24T11:05:00.692Z,-6.10
2022-12-24T11:07:29.778Z,-6.10
2022-12-24T11:09:58.941Z,-6.00
2022-12-24T11:12:27.958Z,-6.00
2022-12-24T11:15:02.921Z,-5.90
2022-12-24T11:17:31.281Z,-5.90
2022-12-24T11:20:02.895Z,-5.80
2022-12-24T11:22:31.855Z,-5.90
2022-12-24T11:25:04.685Z,-5.90
2022-12-24T11:27:35.058Z,-5.90
2022-12-24T11:30:21.812Z,-5.90
2022-12-24T11:32:50.820Z,-5.90
2022-12-24T11:35:21.963Z,-5.90
2022-12-24T11:37:50.340Z,-5.90
2022-12-24T11:40:24.132Z,-5.90
2022-12-24T11:42:53.946Z,-5.90
2022-12-24T11:45:26.049Z,-5.80
2022-12-24T11:47:54.775Z,-5.80
2022-12-24T11:50:25.981Z,-5.90
2022-12-24T11:52:56.849Z,-5.90
2022-12-24T11:55:30.427Z,-5.80
2022-12-24T11:58:01.712Z,-5.90
2022-12-24T12:00:29.897Z,-5.90
2022-12-24T12:03:00.104Z,-5.90
2022-12-24T12:05:31.327Z,-5.90
2022-12-24T12:08:04.016Z,-5.90
2022-12-24T12:10:33.939Z,-5.90
2022-12-24T12:13:05.001Z,-5.90
2022-12-24T12:15:35.397Z,-5.90
2022-12-24T12:18:07.334Z,-5.90
2022-12-24T12:20:40.953Z,-5.90
2022-12-24T12:23:14.134Z,-6.00
2022-12-24T12:25:46.039Z,-5.90
2022-12-24T12:28:17.760Z,-6.00
2022-12-24T12:30:46.197Z,-6.00
2022-12-24T12:33:19.860Z,-6.00
2022-12-24T12:35:50.899Z,-6.00
2022-12-24T12:38:22.082Z,-6.10
2022-12-24T12:40:57.028Z,-6.00
2022-12-24T12:43:33.809Z,-6.00
2022-12-24T12:46:05.955Z,-6.00
2022-12-24T12:48:43.398Z,-6.10
2022-12-24T12:51:16.901Z,-6.10
2022-12-24T12:53:53.987Z,-6.10
2022-12-24T12:56:26.878Z,-6.10
2022-12-24T12:58:58.707Z,-6.10
2022-12-24T13:01:32.875Z,-6.20
2022-12-24T13:04:29.765Z,-6.20
2022-12-24T13:07:16.002Z,-6.20
2022-12-24T13:10:00.431Z,-6.20
2022-12-24T13:12:37.479Z,-6.20
2022-12-24T13:15:15.000Z,-6.20
2022-12-24T13:17:55.621Z,-6.20
2022-12-24T13:20:26.683Z,-6.20
2022-12-24T13:22:57.989Z,-6.20
2022-12-24T13:25:31.694Z,-6.10
2022-12-24T13:28:14.594Z,-6.10
2022-12-24T13:30:47.013Z,-6.20
2022-12-24T13:33:15.715Z,-6.30
2022-12-24T13:36:00.601Z,-6.30
2022-12-24T13:38:40.224Z,-6.40
2022-12-24T13:41:29.302Z,-6.40
2022-12-24T13:44:05.608Z,-6.50
2022-12-24T13:46:50.200Z,-6.40
2022-12-24T13:49:20.459Z,-6.40
2022-12-24T13:51:50.111Z,-6.40
2022-12-24T13:54:21.271Z,-6.30
2022-12-24T13:56:49.508Z,-6.30
2022-12-24T13:59:33.063Z,-6.30
2022-12-24T14:02:05.616Z,-6.40
2022-12-24T14:04:35.978Z,-6.30
2022-12-24T14:07:06.941Z,-6.30
2022-12-24T14:09:35.206Z,-6.40
2022-12-24T14:12:19.506Z,-6.40
2022-12-24T14:14:50.349Z,-6.40
2022-12-24T14:17:23.395Z,-6.40
2022-12-24T14:19:53.121Z,-6.40
2022-12-24T14:22:24.819Z,-6.40
2022-12-24T14:24:54.721Z,-6.30
2022-12-24T14:27:25.828Z,-6.40
2022-12-24T14:30:00.495Z,-6.50
2022-12-24T14:32:35.175Z,-6.50
2022-12-24T14:35:06.807Z,-6.50
2022-12-24T14:37:35.648Z,-6.50
2022-12-24T14:40:07.087Z,-6.50
2022-12-24T14:42:40.505Z,-6.60
2022-12-24T14:45:15.354Z,-6.50
2022-12-24T14:47:47.278Z,-6.60
2022-12-24T14:50:45.611Z,-6.60
2022-12-24T14:53:20.659Z,-6.60
2022-12-24T14:55:49.503Z,-6.60
2022-12-24T14:58:26.380Z,-6.70
2022-12-24T15:00:57.019Z,-6.70
2022-12-24T15:03:26.326Z,-6.70
2022-12-24T15:05:55.696Z,-6.80
2022-12-24T15:08:27.353Z,-6.80
2022-12-24T15:10:56.550Z,-6.90
2022-12-24T15:13:28.830Z,-6.90
2022-12-24T15:16:00.141Z,-7.00
2022-12-24T15:18:29.761Z,-6.90
2022-12-24T15:21:04.124Z,-7.00
2022-12-24T15:23:34.123Z,-7.00
2022-12-24T15:26:10.084Z,-7.00
2022-12-24T15:28:39.380Z,-7.00
2022-12-24T15:31:12.961Z,-7.00
2022-12-24T15:33:41.227Z,-7.00
2022-12-24T15:36:10.003Z,-7.00
2022-12-24T15:38:39.510Z,-7.00
2022-12-24T15:41:08.769Z,-7.00
2022-12-24T15:43:43.334Z,-7.10
2022-12-24T15:46:19.033Z,-7.10
2022-12-24T15:48:47.588Z,-7.20
2022-12-24T15:51:22.102Z,-7.20
2022-12-24T15:53:56.348Z,-7.20
2022-12-24T15:56:35.299Z,-7.10
2022-12-24T15:59:27.075Z,-7.10
2022-12-24T16:01:56.737Z,-7.10
2022-12-24T16:04:26.023Z,-7.10
2022-12-24T16:06:55.281Z,-7.10
2022-12-24T16:09:43.048Z,-7.20
2022-12-24T16:12:17.055Z,-7.20
2022-12-24T16:14:48.703Z,-7.20
2022-12-24T16:17:22.206Z,-7.20
2022-12-24T16:19:52.032Z,-7.10
2022-12-24T16:22:35.359Z,-7.20
2022-12-24T16:25:23.115Z,-7.20
2022-12-24T16:27:51.334Z,-7.20
2022-12-24T16:30:20.105Z,-7.30
2022-12-24T16:32:52.131Z,-7.30
2022-12-24T16:35:28.011Z,-7.30
2022-12-24T16:37:57.034Z,-7.40
2022-12-24T16:40:27.952Z,-7.40
2022-12-24T16:43:14.404Z,-7.40
2022-12-24T16:45:43.135Z,-7.30
2022-12-24T16:48:18.468Z,-7.30
2022-12-24T16:50:46.769Z,-7.30
2022-12-24T16:53:17.665Z,-7.30
2022-12-24T16:55:47.799Z,-7.30
2022-12-24T16:58:16.769Z,-7.30
2022-12-24T17:00:45.936Z,-7.40
2022-12-24T17:03:15.723Z,-7.40
2022-12-24T17:05:44.587Z,-7.40
2022-12-24T17:08:12.948Z,-7.40
2022-12-24T17:10:41.732Z,-7.40
2022-12-24T17:13:09.837Z,-7.40
2022-12-24T17:15:38.272Z,-7.40
2022-12-24T17:18:09.101Z,-7.30
2022-12-24T17:20:38.645Z,-7.30
2022-12-24T17:23:06.822Z,-7.30
2022-12-24T17:25:36.774Z,-7.30
2022-12-24T17:28:05.119Z,-7.30
2022-12-24T17:30:33.377Z,-7.30
2022-12-24T17:33:01.539Z,-7.30
2022-12-24T17:35:29.822Z,-7.30
2022-12-24T17:37:59.494Z,-7.40
2022-12-24T17:40:28.598Z,-7.40
2022-12-24T17:42:56.847Z,-7.50
2022-12-24T17:45:25.148Z,-7.50
2022-12-24T17:47:53.294Z,-7.50
2022-12-24T17:50:22.796Z,-7.50
2022-12-24T17:52:51.141Z,-7.50
2022-12-24T17:55:22.686Z,-7.60
2022-12-24T17:57:51.024Z,-7.60
2022-12-24T18:00:19.698Z,-7.60
2022-12-24T18:02:47.928Z,-7.50
2022-12-24T18:05:16.357Z,-7.50
2022-12-24T18:07:44.481Z,-7.50
2022-12-24T18:10:12.944Z,-7.50
2022-12-24T18:12:45.507Z,-7.50
2022-12-24T18:15:13.790Z,-7.50
2022-12-24T18:17:42.058Z,-7.50
2022-12-24T18:20:13.553Z,-7.40
2022-12-24T18:22:41.931Z,-7.40
2022-12-24T18:25:10.846Z,-7.40
2022-12-24T18:27:41.446Z,-7.40
2022-12-24T18:30:11.634Z,-7.40
2022-12-24T18:32:39.962Z,-7.40
2022-12-24T18:35:08.477Z,-7.40
2022-12-24T18:37:36.652Z,-7.40
2022-12-24T18:40:05.059Z,-7.40
2022-12-24T18:42:33.351Z,-7.40
2022-12-24T18:45:01.521Z,-7.50
2022-12-24T18:47:31.117Z,-7.50
2022-12-24T18:49:59.415Z,-7.60
2022-12-24T18:52:32.597Z,-7.60
2022-12-24T18:55:00.772Z,-7.70
2022-12-24T18:57:30.789Z,-7.70
2022-12-24T18:59:59.021Z,-7.70
2022-12-24T19:02:27.527Z,-7.70
2022-12-24T19:04:57.560Z,-7.80
2022-12-24T19:07:25.963Z,-7.80
2022-12-24T19:09:54.132Z,-7.80
2022-12-24T19:12:22.295Z,-7.90
2022-12-24T19:14:50.574Z,-7.90
2022-12-24T19:17:18.719Z,-7.90
2022-12-24T19:19:46.889Z,-7.90
2022-12-24T19:22:16.541Z,-7.90
2022-12-24T19:24:47.578Z,-7.90
2022-12-24T19:27:15.793Z,-8.00
2022-12-24T19:29:46.992Z,-8.00
2022-12-24T19:32:18.281Z,-8.00
2022-12-24T19:34:46.548Z,-8.00
2022-12-24T19:37:14.669Z,-8.10
2022-12-24T19:39:44.262Z,-8.10
2022-12-24T19:42:12.581Z,-8.10
2022-12-24T19:44:40.711Z,-8.10
2022-12-24T19:47:08.935Z,-8.10
2022-12-24T19:49:37.270Z,-8.10
2022-12-24T19:52:07.609Z,-8.20
2022-12-24T19:54:37.131Z,-8.20
2022-12-24T19:57:06.762Z,-8.20
2022-12-24T19:59:38.543Z,-8.20
2022-12-24T20:02:06.945Z,-8.10
2022-12-24T20:04:35.247Z,-8.10
2022-12-24T20:07:03.350Z,-8.10
2022-12-24T20:09:34.036Z,-8.10
2022-12-24T20:12:02.520Z,-8.10
2022-12-24T20:14:32.295Z,-8.10
2022-12-24T20:17:00.612Z,-8.10
2022-12-24T20:19:28.875Z,-8.10
2022-12-24T20:21:56.991Z,-8.10
2022-12-24T20:24:25.264Z,-8.10
2022-12-24T20:26:53.488Z,-8.10
2022-12-24T20:29:21.572Z,-8.10
2022-12-24T20:31:51.336Z,-8.10
2022-12-24T20:34:19.719Z,-8.10
2022-12-24T20:36:47.915Z,-8.10
2022-12-24T20:39:17.221Z,-8.10
2022-12-24T20:41:45.390Z,-8.20
2022-12-24T20:44:13.643Z,-8.20
2022-12-24T20:46:41.812Z,-8.20
2022-12-24T20:49:12.993Z,-8.30
2022-12-24T20:51:41.150Z,-8.30
2022-12-24T20:54:09.362Z,-8.20
2022-12-24T20:56:37.923Z,-8.30
2022-12-24T20:59:06.123Z,-8.30
2022-12-24T21:01:34.686Z,-8.20
2022-12-24T21:04:05.641Z,-8.30
2022-12-24T21:06:36.379Z,-8.20
2022-12-24T21:09:06.094Z,-8.20
2022-12-24T21:11:51.662Z,-8.20
2022-12-24T21:14:20.636Z,-8.20
2022-12-24T21:16:48.923Z,-8.20
2022-12-24T21:19:18.454Z,-8.20
2022-12-24T21:21:48.494Z,-8.20
2022-12-24T21:24:17.236Z,-8.30
2022-12-24T21:26:45.404Z,-8.30
2022-12-24T21:29:14.900Z,-8.30
2022-12-24T21:31:44.021Z,-8.30
2022-12-24T21:34:12.169Z,-8.30
2022-12-24T21:36:40.434Z,-8.20
2022-12-24T21:39:10.176Z,-8.20
2022-12-24T21:41:38.318Z,-8.20
2022-12-24T21:44:06.673Z,-8.30
2022-12-24T21:46:34.933Z,-8.30
2022-12-24T21:49:20.456Z,-8.30
2022-12-24T21:51:49.211Z,-8.30
2022-12-24T21:54:24.037Z,-8.30
2022-12-24T21:57:09.846Z,-8.30
2022-12-24T21:59:38.069Z,-8.40
2022-12-24T22:02:06.702Z,-8.40
2022-12-24T22:04:35.050Z,-8.40
2022-12-24T22:07:20.595Z,-8.40
2022-12-24T22:10:07.444Z,-8.40
2022-12-24T22:12:36.049Z,-8.40
2022-12-24T22:15:06.433Z,-8.40
2022-12-24T22:17:34.570Z,-8.40
2022-12-24T22:20:02.913Z,-8.40
2022-12-24T22:22:31.068Z,-8.50
2022-12-24T22:25:00.621Z,-8.40
2022-12-24T22:27:28.991Z,-8.40
2022-12-24T22:29:57.104Z,-8.40
2022-12-24T22:32:25.460Z,-8.50
2022-12-24T22:34:53.858Z,-8.40
2022-12-24T22:37:22.217Z,-8.50
2022-12-24T22:39:50.355Z,-8.50
2022-12-24T22:42:19.974Z,-8.50
2022-12-24T22:44:48.610Z,-8.50
2022-12-24T22:47:16.910Z,-8.50
2022-12-24T22:49:45.197Z,-8.60
2022-12-24T22:52:13.299Z,-8.60
2022-12-24T22:54:42.760Z,-8.50
2022-12-24T22:57:10.925Z,-8.60
2022-12-24T22:59:40.571Z,-8.60
2022-12-24T23:02:09.008Z,-8.60
2022-12-24T23:04:37.692Z,-8.70
2022-12-24T23:07:06.176Z,-8.60
2022-12-24T23:09:34.783Z,-8.70
2022-12-24T23:12:02.966Z,-8.70
2022-12-24T23:14:48.863Z,-8.70
2022-12-24T23:17:18.518Z,-8.70
2022-12-24T23:19:46.658Z,-8.70
2022-12-24T23:22:14.961Z,-8.70
2022-12-24T23:24:43.111Z,-8.70
2022-12-24T23:27:12.510Z,-8.80
2022-12-24T23:29:40.838Z,-8.70
2022-12-24T23:32:09.034Z,-8.80
2022-12-24T23:34:38.622Z,-8.70
2022-12-24T23:37:07.006Z,-8.70
2022-12-24T23:39:35.171Z,-8.80
2022-12-24T23:42:03.308Z,-8.80
2022-12-24T23:44:32.769Z,-8.80
2022-12-24T23:47:01.298Z,-8.80
2022-12-24T23:49:29.507Z,-8.70
2022-12-24T23:51:59.158Z,-8.80
2022-12-24T23:54:28.565Z,-8.80
2022-12-24T23:56:56.686Z,-8.80
2022-12-24T23:59:24.909Z,-8.80
